sensor_id;sensor_type;location;lat;lon;timestamp;pressure;altitude;pressure_sealevel;temperature;humidity
51229;BME280;37304;52.216;6.874;2023-04-22T00:01:49;100640.78;;;8.66;100.00
51229;BME280;37304;52.216;6.874;2023-04-22T00:06:50;100648.59;;;8.61;100.00
51229;BME280;37304;52.216;6.874;2023-04-22T00:11:51;100633.13;;;8.55;100.00
51229;BME280;37304;52.216;6.874;2023-04-22T00:16:51;100645.19;;;8.54;100.00
51229;BME280;37304;52.216;6.874;2023-04-22T00:21:52;100634.03;;;8.51;100.00
51229;BME280;37304;52.216;6.874;2023-04-22T00:26:52;100632.25;;;8.54;100.00
51229;BME280;37304;52.216;6.874;2023-04-22T00:31:53;100624.50;;;8.53;100.00
51229;BME280;37304;52.216;6.874;2023-04-22T00:36:53;100612.44;;;8.47;100.00
51229;BME280;37304;52.216;6.874;2023-04-22T00:41:54;100598.69;;;8.43;100.00
51229;BME280;37304;52.216;6.874;2023-04-22T00:46:57;100609.91;;;8.42;100.00
51229;BME280;37304;52.216;6.874;2023-04-22T00:51:58;100610.06;;;8.28;100.00
51229;BME280;37304;52.216;6.874;2023-04-22T00:56:58;100605.91;;;8.13;100.00
51229;BME280;37304;52.216;6.874;2023-04-22T01:01:59;100613.84;;;7.95;100.00
51229;BME280;37304;52.216;6.874;2023-04-22T01:07:00;100606.25;;;7.79;100.00
51229;BME280;37304;52.216;6.874;2023-04-22T01:12:01;100596.66;;;7.91;100.00
51229;BME280;37304;52.216;6.874;2023-04-22T01:17:01;100589.00;;;7.78;100.00
51229;BME280;37304;52.216;6.874;2023-04-22T01:22:02;100582.03;;;7.85;100.00
51229;BME280;37304;52.216;6.874;2023-04-22T01:27:02;100587.25;;;7.80;100.00
51229;BME280;37304;52.216;6.874;2023-04-22T01:32:03;100576.13;;;7.72;100.00
51229;BME280;37304;52.216;6.874;2023-04-22T01:37:05;100586.47;;;7.72;100.00
51229;BME280;37304;52.216;6.874;2023-04-22T01:42:06;100585.50;;;7.84;100.00
51229;BME280;37304;52.216;6.874;2023-04-22T01:47:07;100587.94;;;7.98;100.00
51229;BME280;37304;52.216;6.874;2023-04-22T01:52:07;100586.19;;;8.01;100.00
51229;BME280;37304;52.216;6.874;2023-04-22T02:03:01;100579.31;;;7.99;100.00
51229;BME280;37304;52.216;6.874;2023-04-22T02:08:02;100578.50;;;7.94;100.00
51229;BME280;37304;52.216;6.874;2023-04-22T02:13:05;100565.66;;;7.83;100.00
51229;BME280;37304;52.216;6.874;2023-04-22T02:18:39;100565.59;;;7.89;100.00
51229;BME280;37304;52.216;6.874;2023-04-22T02:24:05;100564.63;;;8.01;100.00
51229;BME280;37304;52.216;6.874;2023-04-22T02:29:17;100552.50;;;8.06;100.00
51229;BME280;37304;52.216;6.874;2023-04-22T02:34:25;100555.81;;;8.18;100.00
51229;BME280;37304;52.216;6.874;2023-04-22T02:39:55;100554.06;;;8.20;100.00
51229;BME280;37304;52.216;6.874;2023-04-22T02:45:02;100551.50;;;8.18;100.00
51229;BME280;37304;52.216;6.874;2023-04-22T02:50:04;100558.44;;;8.14;100.00
51229;BME280;37304;52.216;6.874;2023-04-22T02:55:05;100552.34;;;8.19;100.00
51229;BME280;37304;52.216;6.874;2023-04-22T03:00:28;100550.59;;;8.21;100.00
51229;BME280;37304;52.216;6.874;2023-04-22T03:05:39;100548.88;;;8.20;100.00
51229;BME280;37304;52.216;6.874;2023-04-22T03:11:15;100544.59;;;8.20;100.00
51229;BME280;37304;52.216;6.874;2023-04-22T03:16:20;100546.28;;;8.21;100.00
51229;BME280;37304;52.216;6.874;2023-04-22T03:27:45;100531.59;;;8.22;100.00
51229;BME280;37304;52.216;6.874;2023-04-22T03:32:49;100527.34;;;8.19;100.00
51229;BME280;37304;52.216;6.874;2023-04-22T03:38:30;100523.00;;;8.21;100.00
51229;BME280;37304;52.216;6.874;2023-04-22T03:43:32;100518.66;;;8.23;100.00
51229;BME280;37304;52.216;6.874;2023-04-22T03:48:39;100513.44;;;8.25;100.00
51229;BME280;37304;52.216;6.874;2023-04-22T03:53:54;100509.09;;;8.30;100.00
51229;BME280;37304;52.216;6.874;2023-04-22T03:58:54;100502.13;;;8.35;100.00
51229;BME280;37304;52.216;6.874;2023-04-22T04:03:55;100503.00;;;8.34;100.00
51229;BME280;37304;52.216;6.874;2023-04-22T04:09:03;100499.50;;;8.37;100.00
51229;BME280;37304;52.216;6.874;2023-04-22T04:14:23;100498.56;;;8.41;100.00
51229;BME280;37304;52.216;6.874;2023-04-22T04:19:30;100487.34;;;8.42;100.00
51229;BME280;37304;52.216;6.874;2023-04-22T04:24:33;100494.19;;;8.46;100.00
51229;BME280;37304;52.216;6.874;2023-04-22T04:29:53;100490.72;;;8.49;100.00
51229;BME280;37304;52.216;6.874;2023-04-22T04:34:55;100484.66;;;8.53;100.00
51229;BME280;37304;52.216;6.874;2023-04-22T04:40:15;100489.81;;;8.53;100.00
51229;BME280;37304;52.216;6.874;2023-04-22T04:45:18;100491.50;;;8.57;100.00
51229;BME280;37304;52.216;6.874;2023-04-22T04:51:12;100491.47;;;8.58;100.00
51229;BME280;37304;52.216;6.874;2023-04-22T04:56:27;100484.50;;;8.64;100.00
51229;BME280;37304;52.216;6.874;2023-04-22T05:01:50;100482.72;;;8.67;100.00
51229;BME280;37304;52.216;6.874;2023-04-22T05:12:29;100484.38;;;8.73;100.00
51229;BME280;37304;52.216;6.874;2023-04-22T05:17:29;100471.41;;;8.73;100.00
51229;BME280;37304;52.216;6.874;2023-04-22T05:22:29;100480.00;;;8.75;100.00
51229;BME280;37304;52.216;6.874;2023-04-22T05:27:30;100474.84;;;8.75;100.00
51229;BME280;37304;52.216;6.874;2023-04-22T05:32:31;100473.91;;;8.79;100.00
51229;BME280;37304;52.216;6.874;2023-04-22T05:37:31;100480.69;;;8.86;100.00
51229;BME280;37304;52.216;6.874;2023-04-22T05:42:31;100489.22;;;8.93;100.00
51229;BME280;37304;52.216;6.874;2023-04-22T05:47:32;100480.50;;;8.99;100.00
51229;BME280;37304;52.216;6.874;2023-04-22T05:52:35;100476.94;;;9.06;100.00
51229;BME280;37304;52.216;6.874;2023-04-22T05:57:36;100473.44;;;9.09;100.00
51229;BME280;37304;52.216;6.874;2023-04-22T06:02:36;100471.53;;;9.20;100.00
51229;BME280;37304;52.216;6.874;2023-04-22T06:07:37;100471.41;;;9.28;100.00
51229;BME280;37304;52.216;6.874;2023-04-22T06:12:39;100472.00;;;9.42;100.00
51229;BME280;37304;52.216;6.874;2023-04-22T06:17:40;100475.31;;;9.51;100.00
51229;BME280;37304;52.216;6.874;2023-04-22T06:22:40;100474.34;;;9.56;100.00
51229;BME280;37304;52.216;6.874;2023-04-22T06:27:44;100472.47;;;9.65;100.00
51229;BME280;37304;52.216;6.874;2023-04-22T06:32:44;100463.63;;;9.75;100.00
51229;BME280;37304;52.216;6.874;2023-04-22T06:37:45;100475.53;;;9.85;100.00
51229;BME280;37304;52.216;6.874;2023-04-22T06:42:46;100483.16;;;9.93;100.00
51229;BME280;37304;52.216;6.874;2023-04-22T06:47:46;100471.59;;;10.10;100.00
51229;BME280;37304;52.216;6.874;2023-04-22T06:52:47;100475.56;;;10.26;100.00
51229;BME280;37304;52.216;6.874;2023-04-22T06:57:47;100460.59;;;10.39;100.00
51229;BME280;37304;52.216;6.874;2023-04-22T07:02:47;100468.00;;;10.58;100.00
51229;BME280;37304;52.216;6.874;2023-04-22T07:07:48;100465.84;;;10.75;100.00
51229;BME280;37304;52.216;6.874;2023-04-22T07:12:48;100466.19;;;10.98;100.00
51229;BME280;37304;52.216;6.874;2023-04-22T07:17:51;100458.81;;;11.15;100.00
51229;BME280;37304;52.216;6.874;2023-04-22T07:22:52;100454.22;;;11.27;100.00
51229;BME280;37304;52.216;6.874;2023-04-22T07:27:52;100450.25;;;11.45;100.00
51229;BME280;37304;52.216;6.874;2023-04-22T07:32:53;100445.59;;;11.58;100.00
51229;BME280;37304;52.216;6.874;2023-04-22T07:37:53;100436.53;;;12.04;100.00
51229;BME280;37304;52.216;6.874;2023-04-22T07:42:54;100430.75;;;12.23;100.00
51229;BME280;37304;52.216;6.874;2023-04-22T07:47:54;100422.03;;;12.52;100.00
51229;BME280;37304;52.216;6.874;2023-04-22T07:52:55;100420.34;;;12.78;100.00
51229;BME280;37304;52.216;6.874;2023-04-22T07:57:55;100420.75;;;13.18;100.00
51229;BME280;37304;52.216;6.874;2023-04-22T08:02:56;100420.50;;;13.77;100.00
51229;BME280;37304;52.216;6.874;2023-04-22T08:07:56;100405.78;;;14.20;100.00
51229;BME280;37304;52.216;6.874;2023-04-22T08:12:56;100402.53;;;14.82;100.00
51229;BME280;37304;52.216;6.874;2023-04-22T08:17:57;100390.38;;;15.81;100.00
51229;BME280;37304;52.216;6.874;2023-04-22T08:22:57;100380.03;;;16.88;100.00
51229;BME280;37304;52.216;6.874;2023-04-22T08:28:02;100367.91;;;17.39;100.00
51229;BME280;37304;52.216;6.874;2023-04-22T08:33:03;100356.41;;;18.38;100.00
51229;BME280;37304;52.216;6.874;2023-04-22T08:38:03;100369.88;;;18.78;100.00
51229;BME280;37304;52.216;6.874;2023-04-22T08:43:04;100367.34;;;19.07;100.00
51229;BME280;37304;52.216;6.874;2023-04-22T08:48:07;100372.47;;;20.37;100.00
51229;BME280;37304;52.216;6.874;2023-04-22T08:53:08;100365.81;;;20.45;100.00
51229;BME280;37304;52.216;6.874;2023-04-22T08:58:12;100360.56;;;22.11;100.00
51229;BME280;37304;52.216;6.874;2023-04-22T09:03:13;100375.75;;;21.72;100.00
51229;BME280;37304;52.216;6.874;2023-04-22T09:08:47;100364.66;;;21.41;100.00
51229;BME280;37304;52.216;6.874;2023-04-22T09:19:57;100329.69;;;21.12;100.00
51229;BME280;37304;52.216;6.874;2023-04-22T09:24:58;100340.91;;;20.49;100.00
51229;BME280;37304;52.216;6.874;2023-04-22T09:29:58;100330.25;;;19.68;100.00
51229;BME280;37304;52.216;6.874;2023-04-22T09:35:00;100329.72;;;19.05;100.00
51229;BME280;37304;52.216;6.874;2023-04-22T09:40:00;100327.56;;;19.26;100.00
51229;BME280;37304;52.216;6.874;2023-04-22T09:45:01;100328.75;;;19.35;100.00
51229;BME280;37304;52.216;6.874;2023-04-22T09:50:03;100328.50;;;19.40;100.00
51229;BME280;37304;52.216;6.874;2023-04-22T09:55:07;100318.97;;;20.08;100.00
51229;BME280;37304;52.216;6.874;2023-04-22T10:00:11;100321.63;;;20.74;100.00
51229;BME280;37304;52.216;6.874;2023-04-22T10:05:13;100333.50;;;21.33;100.00
51229;BME280;37304;52.216;6.874;2023-04-22T10:10:16;100322.19;;;22.06;100.00
51229;BME280;37304;52.216;6.874;2023-04-22T10:15:16;100313.94;;;23.16;100.00
51229;BME280;37304;52.216;6.874;2023-04-22T10:20:19;100301.22;;;23.77;98.47
51229;BME280;37304;52.216;6.874;2023-04-22T10:25:40;100303.81;;;24.11;90.45
51229;BME280;37304;52.216;6.874;2023-04-22T10:30:45;100297.66;;;23.99;90.83
51229;BME280;37304;52.216;6.874;2023-04-22T10:41:13;100284.63;;;25.23;81.34
51229;BME280;37304;52.216;6.874;2023-04-22T10:51:59;100271.50;;;24.48;78.97
51229;BME280;37304;52.216;6.874;2023-04-22T10:57:03;100270.53;;;23.51;83.32
51229;BME280;37304;52.216;6.874;2023-04-22T11:02:07;100258.03;;;23.86;86.51
51229;BME280;37304;52.216;6.874;2023-04-22T11:17:38;100246.59;;;23.30;79.54
51229;BME280;37304;52.216;6.874;2023-04-22T11:22:50;100231.44;;;24.82;81.45
51229;BME280;37304;52.216;6.874;2023-04-22T11:27:56;100232.09;;;25.15;76.19
51229;BME280;37304;52.216;6.874;2023-04-22T11:33:01;100228.44;;;26.16;69.53
51229;BME280;37304;52.216;6.874;2023-04-22T11:38:15;100234.91;;;25.65;65.70
51229;BME280;37304;52.216;6.874;2023-04-22T11:43:16;100235.16;;;26.11;65.73
51229;BME280;37304;52.216;6.874;2023-04-22T11:48:23;100224.53;;;25.91;62.20
51229;BME280;37304;52.216;6.874;2023-04-22T11:53:25;100221.03;;;26.20;63.03
51229;BME280;37304;52.216;6.874;2023-04-22T11:58:38;100218.78;;;26.15;66.46
51229;BME280;37304;52.216;6.874;2023-04-22T12:03:39;100219.75;;;25.46;67.05
51229;BME280;37304;52.216;6.874;2023-04-22T12:08:43;100209.50;;;24.59;68.71
51229;BME280;37304;52.216;6.874;2023-04-22T12:13:44;100224.25;;;23.44;69.30
51229;BME280;37304;52.216;6.874;2023-04-22T12:18:52;100212.84;;;24.30;69.91
51229;BME280;37304;52.216;6.874;2023-04-22T12:24:07;100213.50;;;22.90;73.18
51229;BME280;37304;52.216;6.874;2023-04-22T12:29:07;100208.09;;;23.59;75.59
51229;BME280;37304;52.216;6.874;2023-04-22T12:34:08;100212.25;;;24.05;74.03
51229;BME280;37304;52.216;6.874;2023-04-22T12:39:08;100211.25;;;23.41;75.02
51229;BME280;37304;52.216;6.874;2023-04-22T12:49:59;100197.69;;;21.96;83.78
51229;BME280;37304;52.216;6.874;2023-04-22T12:55:08;100205.31;;;21.76;87.62
51229;BME280;37304;52.216;6.874;2023-04-22T13:00:09;100207.81;;;21.29;89.82
51229;BME280;37304;52.216;6.874;2023-04-22T13:05:14;100199.59;;;21.21;93.45
51229;BME280;37304;52.216;6.874;2023-04-22T13:10:15;100205.78;;;20.83;95.51
51229;BME280;37304;52.216;6.874;2023-04-22T13:15:17;100198.59;;;20.85;97.89
51229;BME280;37304;52.216;6.874;2023-04-22T13:20:19;100196.28;;;20.80;100.00
51229;BME280;37304;52.216;6.874;2023-04-22T13:25:20;100190.56;;;20.73;100.00
51229;BME280;37304;52.216;6.874;2023-04-22T13:30:21;100194.59;;;20.53;100.00
51229;BME280;37304;52.216;6.874;2023-04-22T13:35:21;100184.09;;;21.03;100.00
51229;BME280;37304;52.216;6.874;2023-04-22T13:40:37;100177.16;;;20.89;100.00
51229;BME280;37304;52.216;6.874;2023-04-22T13:45:37;100163.47;;;21.08;100.00
51229;BME280;37304;52.216;6.874;2023-04-22T13:50:37;100172.16;;;20.72;100.00
51229;BME280;37304;52.216;6.874;2023-04-22T13:55:41;100160.66;;;20.73;100.00
51229;BME280;37304;52.216;6.874;2023-04-22T14:00:42;100156.38;;;20.59;100.00
51229;BME280;37304;52.216;6.874;2023-04-22T14:05:42;100152.69;;;20.35;100.00
51229;BME280;37304;52.216;6.874;2023-04-22T14:10:43;100145.81;;;20.20;100.00
51229;BME280;37304;52.216;6.874;2023-04-22T14:15:43;100146.84;;;19.91;100.00
51229;BME280;37304;52.216;6.874;2023-04-22T14:20:44;100164.25;;;19.26;100.00
51229;BME280;37304;52.216;6.874;2023-04-22T14:25:50;100152.53;;;18.59;100.00
51229;BME280;37304;52.216;6.874;2023-04-22T14:30:51;100145.38;;;18.61;100.00
51229;BME280;37304;52.216;6.874;2023-04-22T14:35:52;100149.06;;;18.73;100.00
51229;BME280;37304;52.216;6.874;2023-04-22T14:40:59;100159.22;;;18.65;100.00
51229;BME280;37304;52.216;6.874;2023-04-22T14:46:19;100179.03;;;18.42;100.00
51229;BME280;37304;52.216;6.874;2023-04-22T14:51:23;100192.78;;;18.02;100.00
51229;BME280;37304;52.216;6.874;2023-04-22T14:56:27;100188.91;;;18.08;100.00
51229;BME280;37304;52.216;6.874;2023-04-22T15:01:46;100194.88;;;17.95;100.00
51229;BME280;37304;52.216;6.874;2023-04-22T15:06:59;100202.59;;;17.82;100.00
51229;BME280;37304;52.216;6.874;2023-04-22T15:12:02;100213.69;;;17.57;100.00
51229;BME280;37304;52.216;6.874;2023-04-22T15:17:04;100232.31;;;17.36;100.00
51229;BME280;37304;52.216;6.874;2023-04-22T15:22:05;100250.84;;;16.83;100.00
51229;BME280;37304;52.216;6.874;2023-04-22T15:27:08;100261.09;;;16.37;100.00
51229;BME280;37304;52.216;6.874;2023-04-22T15:32:17;100270.03;;;16.33;100.00
51229;BME280;37304;52.216;6.874;2023-04-22T15:37:25;100263.97;;;15.95;100.00
51229;BME280;37304;52.216;6.874;2023-04-22T15:47:54;100287.00;;;15.69;100.00
51229;BME280;37304;52.216;6.874;2023-04-22T15:52:59;100285.47;;;15.65;100.00
51229;BME280;37304;52.216;6.874;2023-04-22T15:58:07;100275.31;;;15.57;100.00
51229;BME280;37304;52.216;6.874;2023-04-22T16:03:15;100273.06;;;15.50;100.00
51229;BME280;37304;52.216;6.874;2023-04-22T16:08:42;100272.03;;;15.14;100.00
51229;BME280;37304;52.216;6.874;2023-04-22T16:14:05;100278.00;;;15.18;100.00
51229;BME280;37304;52.216;6.874;2023-04-22T16:19:34;100285.22;;;15.12;100.00
51229;BME280;37304;52.216;6.874;2023-04-22T16:24:38;100285.50;;;15.06;100.00
51229;BME280;37304;52.216;6.874;2023-04-22T16:29:42;100279.22;;;14.90;100.00
51229;BME280;37304;52.216;6.874;2023-04-22T16:40:46;100274.13;;;14.66;100.00
51229;BME280;37304;52.216;6.874;2023-04-22T16:45:53;100284.66;;;14.64;100.00
51229;BME280;37304;52.216;6.874;2023-04-22T16:50:53;100288.25;;;14.62;100.00
51229;BME280;37304;52.216;6.874;2023-04-22T16:55:55;100281.75;;;14.50;100.00
51229;BME280;37304;52.216;6.874;2023-04-22T17:00:55;100286.41;;;14.43;100.00
51229;BME280;37304;52.216;6.874;2023-04-22T17:05:56;100284.84;;;14.39;100.00
51229;BME280;37304;52.216;6.874;2023-04-22T17:10:56;100283.25;;;14.35;100.00
51229;BME280;37304;52.216;6.874;2023-04-22T17:15:57;100294.03;;;14.27;100.00
51229;BME280;37304;52.216;6.874;2023-04-22T17:21:01;100300.28;;;14.23;100.00
51229;BME280;37304;52.216;6.874;2023-04-22T17:26:07;100296.09;;;14.19;100.00
51229;BME280;37304;52.216;6.874;2023-04-22T17:31:14;100301.69;;;14.09;100.00
51229;BME280;37304;52.216;6.874;2023-04-22T17:36:23;100294.16;;;14.02;100.00
51229;BME280;37304;52.216;6.874;2023-04-22T17:41:30;100301.88;;;13.82;100.00
51229;BME280;37304;52.216;6.874;2023-04-22T17:58:47;100306.72;;;13.46;100.00
51229;BME280;37304;52.216;6.874;2023-04-22T18:03:48;100313.66;;;13.47;100.00
51229;BME280;37304;52.216;6.874;2023-04-22T18:09:03;100310.31;;;13.43;100.00
51229;BME280;37304;52.216;6.874;2023-04-22T18:14:14;100317.66;;;13.32;100.00
51229;BME280;37304;52.216;6.874;2023-04-22T18:19:21;100320.22;;;13.33;100.00
51229;BME280;37304;52.216;6.874;2023-04-22T18:24:22;100327.03;;;13.37;100.00
51229;BME280;37304;52.216;6.874;2023-04-22T18:29:29;100322.00;;;13.33;100.00
51229;BME280;37304;52.216;6.874;2023-04-22T18:34:39;100315.75;;;13.37;100.00
51229;BME280;37304;52.216;6.874;2023-04-22T18:39:42;100327.25;;;13.31;100.00
51229;BME280;37304;52.216;6.874;2023-04-22T18:44:55;100324.59;;;13.33;100.00
51229;BME280;37304;52.216;6.874;2023-04-22T18:50:14;100327.34;;;13.28;100.00
51229;BME280;37304;52.216;6.874;2023-04-22T18:55:24;100327.34;;;13.28;100.00
51229;BME280;37304;52.216;6.874;2023-04-22T19:00:30;100336.06;;;13.29;100.00
51229;BME280;37304;52.216;6.874;2023-04-22T19:05:34;100341.66;;;13.18;100.00
51229;BME280;37304;52.216;6.874;2023-04-22T19:10:40;100343.13;;;13.25;100.00
51229;BME280;37304;52.216;6.874;2023-04-22T19:15:49;100344.06;;;13.22;100.00
51229;BME280;37304;52.216;6.874;2023-04-22T19:20:59;100344.81;;;13.26;100.00
51229;BME280;37304;52.216;6.874;2023-04-22T19:26:07;100371.69;;;13.30;100.00
51229;BME280;37304;52.216;6.874;2023-04-22T19:31:14;100372.88;;;13.19;100.00
51229;BME280;37304;52.216;6.874;2023-04-22T19:36:20;100371.25;;;13.17;100.00
51229;BME280;37304;52.216;6.874;2023-04-22T19:41:35;100382.00;;;13.07;100.00
51229;BME280;37304;52.216;6.874;2023-04-22T19:46:37;100392.13;;;12.91;100.00
51229;BME280;37304;52.216;6.874;2023-04-22T19:52:03;100398.53;;;12.54;100.00
51229;BME280;37304;52.216;6.874;2023-04-22T19:57:04;100406.69;;;12.43;100.00
51229;BME280;37304;52.216;6.874;2023-04-22T20:02:06;100412.25;;;12.32;100.00
51229;BME280;37304;52.216;6.874;2023-04-22T20:07:07;100408.88;;;12.29;100.00
51229;BME280;37304;52.216;6.874;2023-04-22T20:12:13;100416.25;;;12.14;100.00
51229;BME280;37304;52.216;6.874;2023-04-22T20:17:15;100418.22;;;12.06;100.00
51229;BME280;37304;52.216;6.874;2023-04-22T20:22:22;100417.56;;;11.98;100.00
51229;BME280;37304;52.216;6.874;2023-04-22T20:27:23;100422.63;;;11.72;100.00
51229;BME280;37304;52.216;6.874;2023-04-22T20:32:27;100425.59;;;11.60;100.00
51229;BME280;37304;52.216;6.874;2023-04-22T20:37:31;100424.84;;;11.55;100.00
51229;BME280;37304;52.216;6.874;2023-04-22T20:42:39;100437.16;;;11.49;100.00
51229;BME280;37304;52.216;6.874;2023-04-22T20:47:40;100440.03;;;11.39;100.00
51229;BME280;37304;52.216;6.874;2023-04-22T20:52:41;100446.59;;;11.19;100.00
51229;BME280;37304;52.216;6.874;2023-04-22T20:57:46;100451.03;;;11.15;100.00
51229;BME280;37304;52.216;6.874;2023-04-22T21:02:51;100453.94;;;11.03;100.00
51229;BME280;37304;52.216;6.874;2023-04-22T21:07:57;100465.69;;;10.83;100.00
51229;BME280;37304;52.216;6.874;2023-04-22T21:12:59;100468.53;;;10.72;100.00
51229;BME280;37304;52.216;6.874;2023-04-22T21:18:03;100471.19;;;10.69;100.00
51229;BME280;37304;52.216;6.874;2023-04-22T21:23:05;100459.38;;;10.56;100.00
51229;BME280;37304;52.216;6.874;2023-04-22T21:28:07;100460.13;;;10.61;100.00
51229;BME280;37304;52.216;6.874;2023-04-22T21:33:08;100469.78;;;10.54;100.00
51229;BME280;37304;52.216;6.874;2023-04-22T21:38:09;100477.91;;;10.39;100.00
51229;BME280;37304;52.216;6.874;2023-04-22T21:43:09;100473.56;;;10.41;100.00
51229;BME280;37304;52.216;6.874;2023-04-22T21:48:13;100470.97;;;10.39;100.00
51229;BME280;37304;52.216;6.874;2023-04-22T21:53:13;100477.03;;;10.41;100.00
51229;BME280;37304;52.216;6.874;2023-04-22T21:58:16;100492.84;;;10.29;100.00
51229;BME280;37304;52.216;6.874;2023-04-22T22:03:16;100495.63;;;10.19;100.00
51229;BME280;37304;52.216;6.874;2023-04-22T22:08:17;100501.88;;;10.11;100.00
51229;BME280;37304;52.216;6.874;2023-04-22T22:13:17;100497.69;;;10.03;100.00
51229;BME280;37304;52.216;6.874;2023-04-22T22:18:18;100508.34;;;9.89;100.00
51229;BME280;37304;52.216;6.874;2023-04-22T22:23:22;100502.44;;;9.81;100.00
51229;BME280;37304;52.216;6.874;2023-04-22T22:28:24;100514.88;;;9.64;100.00
51229;BME280;37304;52.216;6.874;2023-04-22T22:33:28;100515.91;;;9.53;100.00
51229;BME280;37304;52.216;6.874;2023-04-22T22:38:29;100511.69;;;9.47;100.00
51229;BME280;37304;52.216;6.874;2023-04-22T22:43:43;100515.34;;;9.37;100.00
51229;BME280;37304;52.216;6.874;2023-04-22T22:49:36;100523.22;;;9.29;100.00
51229;BME280;37304;52.216;6.874;2023-04-22T22:54:50;100526.91;;;9.16;100.00
51229;BME280;37304;52.216;6.874;2023-04-22T23:00:04;100530.31;;;9.18;100.00
51229;BME280;37304;52.216;6.874;2023-04-22T23:05:08;100524.31;;;9.14;100.00
51229;BME280;37304;52.216;6.874;2023-04-22T23:10:11;100527.00;;;9.08;100.00
51229;BME280;37304;52.216;6.874;2023-04-22T23:15:11;100521.88;;;9.07;100.00
51229;BME280;37304;52.216;6.874;2023-04-22T23:20:16;100527.16;;;9.00;100.00
51229;BME280;37304;52.216;6.874;2023-04-22T23:31:15;100509.94;;;8.93;100.00
51229;BME280;37304;52.216;6.874;2023-04-22T23:36:20;100511.84;;;8.82;100.00
51229;BME280;37304;52.216;6.874;2023-04-22T23:41:33;100504.06;;;8.83;100.00
51229;BME280;37304;52.216;6.874;2023-04-22T23:46:45;100524.84;;;8.79;100.00
51229;BME280;37304;52.216;6.874;2023-04-22T23:51:52;100515.31;;;8.81;100.00
51229;BME280;37304;52.216;6.874;2023-04-22T23:56:55;100511.91;;;8.80;100.00
